Norwood, CO

3:31 PM MDT on September 23, 2014 (GMT -0600)
Delta | Change Station
CLOSE
Current Station
Airport
Location: Delta,
Elevation: 5194 ft
Nearby Weather Stations

Elev 5194 ft 38.79 °N, 108.07 °W | Updated 16 minutes ago

Clear
Clear
84 °F
Feels Like 84 °F
N
9
Wind Variable Wind from WNW

Today
High -- | Low -- °F
--% Chance of Precip.
Yesterday
High -- | Low -- °F
Precip. -- in
7:01 AM 7:08 PM
Waning Crescent, 0% visible
Pressure 30.18 in
Visibility 10.0 miles
Clouds Clear
Dew Point 44 °F
Humidity 25%
Rainfall 0.04 in
Snow Depth 0 in , 0 in , 0 in
UV 6 out of 12
Pollen 5.10 out of 12
Air Quality Not available.
Flu Activity Not available.
METAR KAJZ 232115Z AUTO 29008KT 10SM CLR 29/07 A3018 RMK AO2 T02860067

More Conditions Fewer Conditions

Pressure 30.18 in
Visibility 10.0 miles
Clouds Clear
Dew Point 44 °F
Humidity 25%
Rainfall 0.04 in
Snow Depth 0 in , 0 in , 0 in
UV 6 out of 12
Pollen 5.10 out of 12
Air Quality Not available.
Flu Activity Not available.
METAR KAJZ 232115Z AUTO 29008KT 10SM CLR 29/07 A3018 RMK AO2 T02860067

More Conditions Fewer Conditions

10-Day Weather Forecast

Almanac

Astronomy

Sep. 23, 2014 Rise Set
Actual Time 7:01 AM MDT 7:08 PM MDT
Civil Twilight 6:35 AM MDT 7:34 PM MDT
Nautical Twilight 6:04 AM MDT 8:05 PM MDT
Astronomical Twilight 5:33 AM MDT 8:36 PM MDT
Moon 6:29 AM MDT 6:49 PM MDT
Length of Visible Light 12h 59m
Length of Day
12h 06m
Tomorrow will be 2m 27s shorter.
Waning Crescent, 0% of the Moon is Illuminated
Today
Waning Crescent
Sep 24
New
Oct 1
First Quarter
Oct 8
Full
Oct 15
Last Quarter

Today's Extremes

State Highs State Lows

Community

WunderPhotos

Upload Photos

1,755,794 photos uploaded!

WunderBlogs® & News

By Dr. Jeff Masters
Director of Meteorology, Weather Underground
By Kari Strenfel
Meteorologist, Weather Underground
By Christopher C. Burt
Weather Historian, Weather Underground
September 23, 2014
September 23, 2014
September 23, 2014

Nearby

Snow Depth

Station Depth Elevation
Niwot 0 in 9910 ft
Dry Lake 0 in 8400 ft
Deadman Hill 0 in 10220 ft
Tower 0 in 10500 ft
Lone Cone 4 in 9600 ft

Earthquake Activity

City Distance Mag. Time & Date
No recent earthquake activity has been reported nearby.
Minimum magnitude displayed is 2.5.

Coastal Water Temperatures

Place Temperature
No Stations Reporting

Nearby Weather Stations